Time;durP1;ratioP1;P1;durP2;ratioP2;P2;SDS_P1;SDS_P2;PMS_P1;PMS_P2;Temp;Humidity;BMP_temperature;BMP_pressure;BME280_temperature;BME280_humidity;BME280_pressure;Samples;Min_cycle;Max_cycle;Signal;HPM_P1;HPM_P2
2024/02/11 11:03:39;;;;;;;5.90;3.50;;;;;;;10.69;74.57;97110.17;102303;1292;636698;-75
2024/02/11 11:06:12;;;;;;;5.60;3.80;;;;;;;10.66;74.57;97104.66;105596;1266;93993;-75
2024/02/11 11:08:43;;;;;;;7.10;4.20;;;;;;;10.64;74.60;97099.88;105163;1272;94364;-75
2024/02/11 11:11:12;;;;;;;5.40;4.00;;;;;;;10.64;74.57;97099.73;104717;1270;108296;-75
2024/02/11 11:13:40;;;;;;;5.40;3.70;;;;;;;10.63;74.66;97094.45;104595;1270;95764;-76
2024/02/11 11:16:08;;;;;;;7.30;4.00;;;;;;;10.64;74.71;97093.17;105482;1266;140483;-75
2024/02/11 11:18:37;;;;;;;6.60;4.30;;;;;;;10.63;74.65;97089.92;105762;1253;94924;-75
2024/02/11 11:21:05;;;;;;;9.50;4.10;;;;;;;10.61;74.66;97089.54;106066;1253;94315;-75
2024/02/11 11:23:37;;;;;;;6.50;4.10;;;;;;;10.60;74.68;97087.17;105695;1253;107250;-74
2024/02/11 11:26:11;;;;;;;8.40;4.10;;;;;;;10.60;74.64;97083.13;105733;1253;94791;-75
2024/02/11 11:28:42;;;;;;;8.50;4.10;;;;;;;10.60;74.61;97078.53;106637;1254;107025;-74
2024/02/11 11:31:11;;;;;;;10.50;4.70;;;;;;;10.60;74.64;97076.58;105226;1254;95333;-74
2024/02/11 11:33:39;;;;;;;6.30;4.00;;;;;;;10.60;74.64;97075.81;105900;1254;95263;-74
2024/02/11 11:36:08;;;;;;;7.90;4.30;;;;;;;10.61;74.66;97071.48;105238;1254;108500;-75
2024/02/11 11:38:35;;;;;;;7.30;4.20;;;;;;;10.62;74.74;97070.00;105581;1256;96187;-74
2024/02/11 11:41:06;;;;;;;6.70;4.30;;;;;;;10.63;74.66;97070.86;106346;1253;107640;-75
2024/02/11 11:43:34;;;;;;;6.20;3.70;;;;;;;10.64;74.71;97068.48;107122;1253;96210;-75
2024/02/11 11:46:03;;;;;;;8.30;4.20;;;;;;;10.65;74.69;97073.66;105948;1253;96187;-77
2024/02/11 11:48:35;;;;;;;6.50;4.00;;;;;;;10.67;74.68;97070.80;106026;1254;108638;-75
2024/02/11 11:51:07;;;;;;;8.00;4.40;;;;;;;10.68;74.60;97072.10;106362;1256;95582;-76
2024/02/11 11:53:36;;;;;;;7.40;4.00;;;;;;;10.70;74.65;97068.25;107214;1253;107622;-75
2024/02/11 11:56:06;;;;;;;8.10;4.10;;;;;;;10.69;74.56;97062.11;105189;1257;95259;-73
2024/02/11 11:58:34;;;;;;;7.30;4.00;;;;;;;10.70;74.60;97064.69;106600;1253;95204;-74
2024/02/11 12:01:07;;;;;;;6.40;3.60;;;;;;;10.71;74.66;97061.15;105495;1256;108277;-74
2024/02/11 12:03:37;;;;;;;5.00;4.00;;;;;;;10.74;74.70;97057.73;105611;1256;96035;-75
2024/02/11 12:06:06;;;;;;;6.70;4.50;;;;;;;10.74;74.62;97052.29;107157;1253;107728;-76
2024/02/11 12:08:34;;;;;;;7.80;4.10;;;;;;;10.76;74.61;97054.19;105704;1256;97912;-76
2024/02/11 12:11:07;;;;;;;6.40;3.70;;;;;;;10.78;74.66;97047.21;105757;1256;95289;-77
2024/02/11 12:13:37;;;;;;;7.10;3.10;;;;;;;10.80;74.59;97045.59;105925;1255;108171;-76
2024/02/11 12:16:09;;;;;;;6.00;3.60;;;;;;;10.83;74.60;97039.90;105412;1254;97388;-77
2024/02/11 12:18:40;;;;;;;5.10;3.20;;;;;;;10.86;74.65;97036.58;105705;1261;107243;-77
2024/02/11 12:21:11;;;;;;;5.40;3.40;;;;;;;10.90;74.61;97032.14;105547;1257;95311;-77
2024/02/11 12:23:40;;;;;;;6.30;3.90;;;;;;;10.93;74.60;97032.28;105348;1253;95233;-77
2024/02/11 12:26:09;;;;;;;8.10;4.10;;;;;;;10.96;74.57;97026.88;105731;1257;108602;-77
2024/02/11 12:28:39;;;;;;;5.10;3.10;;;;;;;11.00;74.61;97025.14;105641;1259;95821;-77
2024/02/11 12:31:11;;;;;;;7.90;4.60;;;;;;;11.07;74.65;97020.75;106291;1256;107282;-77
2024/02/11 12:33:40;;;;;;;7.00;4.80;;;;;;;11.13;74.67;97015.27;105918;1257;96262;-76
2024/02/11 12:36:19;;;;;;;6.00;3.40;;;;;;;11.22;74.67;97008.08;106835;1254;95205;-76
2024/02/11 12:38:51;;;;;;;6.60;4.10;;;;;;;11.33;74.64;97002.73;105636;1254;108556;-75
2024/02/11 12:41:22;;;;;;;9.60;4.80;;;;;;;11.44;74.77;96996.48;107502;1253;95615;-76
2024/02/11 12:43:54;;;;;;;32.60;10.90;;;;;;;11.57;74.69;96994.08;105601;1259;107650;-76
2024/02/11 12:46:23;;;;;;;24.90;10.60;;;;;;;11.68;74.77;96995.98;108453;1253;94159;-77
2024/02/11 12:48:51;;;;;;;12.40;6.10;;;;;;;11.74;74.53;96989.48;106410;1253;95256;-76
2024/02/11 12:51:19;;;;;;;8.70;4.70;;;;;;;11.79;74.50;96990.05;105896;1254;108585;-76
2024/02/11 12:53:48;;;;;;;8.10;4.10;;;;;;;11.83;74.42;96990.48;105356;1257;95298;-77
2024/02/11 12:56:18;;;;;;;6.90;3.90;;;;;;;11.86;74.48;96987.85;106363;1256;107575;-75
2024/02/11 12:58:48;;;;;;;8.20;4.20;;;;;;;11.87;74.32;96988.45;108019;1253;95316;-75
2024/02/11 13:01:17;;;;;;;7.00;3.60;;;;;;;11.86;74.37;96984.58;105785;1254;95174;-76
2024/02/11 13:03:46;;;;;;;6.60;3.60;;;;;;;11.85;74.24;96981.89;105807;1256;108983;-76
2024/02/11 13:06:16;;;;;;;7.70;3.90;;;;;;;11.87;74.28;96980.81;106704;1257;95363;-75
2024/02/11 13:08:46;;;;;;;5.10;3.20;;;;;;;11.90;74.10;96976.02;108590;1253;107454;-76
2024/02/11 13:11:16;;;;;;;6.90;3.80;;;;;;;11.94;74.06;96974.59;106656;1253;95341;-77
2024/02/11 13:13:51;;;;;;;6.30;3.40;;;;;;;11.98;74.19;96967.84;106256;1253;95260;-77
2024/02/11 13:16:20;;;;;;;7.90;4.40;;;;;;;12.02;74.01;96963.68;106113;1253;108093;-76
2024/02/11 13:18:48;;;;;;;7.20;4.50;;;;;;;12.06;74.09;96957.70;105981;1253;96200;-76
2024/02/11 13:21:17;;;;;;;9.20;4.10;;;;;;;12.09;73.97;96958.19;108479;1252;107653;-77
2024/02/11 13:23:47;;;;;;;10.20;5.30;;;;;;;12.08;73.85;96955.06;105774;1254;95332;-78
2024/02/11 13:26:22;;;;;;;9.90;5.00;;;;;;;12.07;73.73;96950.40;106106;1257;95256;-78
2024/02/11 13:28:50;;;;;;;7.00;4.60;;;;;;;12.05;73.63;96945.55;107687;1253;108254;-78
2024/02/11 13:31:19;;;;;;;5.60;3.30;;;;;;;12.06;73.69;96944.05;105362;1269;95478;-76
2024/02/11 13:33:54;;;;;;;5.60;3.50;;;;;;;12.07;73.55;96949.48;107186;1253;107008;-75
2024/02/11 13:36:22;;;;;;;6.30;3.90;;;;;;;12.08;73.47;96951.73;107022;1257;95348;-76
2024/02/11 13:38:50;;;;;;;7.20;3.60;;;;;;;12.08;73.45;96950.46;106230;1253;96238;-76
2024/02/11 13:41:18;;;;;;;8.40;4.00;;;;;;;12.09;73.33;96945.93;106528;1257;109066;-76
2024/02/11 13:43:47;;;;;;;8.80;4.10;;;;;;;12.10;73.25;96942.23;108483;1254;94786;-76
2024/02/11 13:46:15;;;;;;;5.80;3.80;;;;;;;12.10;73.13;96941.94;105617;1254;107791;-76
2024/02/11 13:48:43;;;;;;;8.70;3.60;;;;;;;12.09;72.95;96944.17;106658;1253;95274;-75
2024/02/11 13:51:12;;;;;;;7.90;3.80;;;;;;;12.09;73.07;96946.77;106719;1256;95419;-73
2024/02/11 13:53:40;;;;;;;6.60;3.10;;;;;;;12.10;72.87;96946.16;106530;1256;107614;-77
2024/02/11 13:56:09;;;;;;;5.80;3.30;;;;;;;12.08;72.85;96952.52;106153;1253;95436;-76
2024/02/11 13:58:41;;;;;;;4.60;2.70;;;;;;;12.07;72.71;96950.91;106725;1256;107104;-76
2024/02/11 14:01:12;;;;;;;6.90;3.30;;;;;;;12.06;72.60;96955.67;105459;1269;95339;-76
2024/02/11 14:03:41;;;;;;;5.90;3.00;;;;;;;12.03;72.54;96951.29;107714;1253;94951;-77
2024/02/11 14:06:12;;;;;;;7.00;3.20;;;;;;;12.01;72.46;96953.30;106747;1256;108766;-75
2024/02/11 14:08:42;;;;;;;4.60;2.70;;;;;;;12.01;72.45;96953.58;107206;1254;95231;-74
2024/02/11 14:11:10;;;;;;;5.60;3.30;;;;;;;11.99;72.35;96952.14;105965;1259;107403;-75
2024/02/11 14:13:38;;;;;;;7.10;3.30;;;;;;;11.98;72.35;96945.09;106498;1256;95267;-76
2024/02/11 14:16:08;;;;;;;8.10;3.30;;;;;;;11.97;72.22;96941.66;106612;1253;96210;-75
2024/02/11 14:18:37;;;;;;;5.10;3.30;;;;;;;11.95;72.24;96938.54;105178;1256;108604;-75
2024/02/11 14:21:05;;;;;;;6.10;3.20;;;;;;;11.93;71.97;96932.23;105374;1257;95548;-75
2024/02/11 14:23:34;;;;;;;6.20;3.30;;;;;;;11.89;71.93;96933.84;105450;1256;107348;-75
2024/02/11 14:26:08;;;;;;;6.40;3.90;;;;;;;11.86;71.59;96930.23;106303;1254;96190;-76
2024/02/11 14:28:37;;;;;;;7.00;3.40;;;;;;;11.85;71.48;96930.17;105736;1256;95319;-76
2024/02/11 14:31:10;;;;;;;6.70;3.60;;;;;;;11.86;71.57;96924.63;107184;1256;107965;-80
2024/02/11 14:33:48;;;;;;;7.00;3.30;;;;;;;11.85;71.34;96925.32;106498;1257;97610;-79
2024/02/11 14:36:39;;;;;;;5.30;3.00;;;;;;;11.83;71.29;96923.29;106630;1256;107762;-75
2024/02/11 14:39:16;;;;;;;6.40;3.30;;;;;;;11.85;71.38;96924.41;105480;1267;96168;-76
2024/02/11 14:41:44;;;;;;;7.20;3.70;;;;;;;11.84;71.13;96926.46;106393;1258;95247;-76
2024/02/11 14:44:12;;;;;;;6.20;3.80;;;;;;;11.86;70.96;96929.61;105465;1253;108464;-76
2024/02/11 14:46:41;;;;;;;7.20;3.70;;;;;;;11.88;70.93;96929.57;105357;1257;96171;-79
2024/02/11 14:49:09;;;;;;;6.70;3.40;;;;;;;11.90;70.81;96930.15;105221;1273;107170;-76
2024/02/11 14:51:39;;;;;;;5.00;3.00;;;;;;;11.92;70.87;96931.77;106736;1256;95250;-76
2024/02/11 14:54:11;;;;;;;6.50;3.40;;;;;;;11.94;70.83;96928.42;105874;1253;95191;-76
2024/02/11 14:56:42;;;;;;;6.80;3.70;;;;;;;11.93;70.76;96929.86;105712;1254;108490;-75
2024/02/11 14:59:10;;;;;;;5.20;3.00;;;;;;;11.92;70.45;96925.54;108478;1253;95232;-75
2024/02/11 15:01:39;;;;;;;7.70;3.50;;;;;;;11.89;70.26;96932.93;105697;1253;107390;-75
2024/02/11 15:04:07;;;;;;;6.00;3.80;;;;;;;11.87;70.40;96939.63;105491;1259;96163;-75
2024/02/11 15:06:35;;;;;;;7.40;3.60;;;;;;;11.82;70.38;96942.98;105906;1254;95284;-75
2024/02/11 15:09:08;;;;;;;6.40;3.70;;;;;;;11.78;70.16;96939.70;105842;1254;108377;-74
2024/02/11 15:11:40;;;;;;;7.40;3.60;;;;;;;11.74;70.20;96949.06;106326;1254;95253;-74
2024/02/11 15:14:09;;;;;;;5.30;3.30;;;;;;;11.70;70.19;96956.23;106391;1256;107694;-78
2024/02/11 15:16:37;;;;;;;8.40;4.20;;;;;;;11.65;70.03;96965.27;106064;1256;96954;-73
2024/02/11 15:19:07;;;;;;;8.90;5.00;;;;;;;11.62;70.11;96966.55;107223;1253;96548;-75
2024/02/11 15:21:35;;;;;;;8.20;4.20;;;;;;;11.57;70.08;96969.52;105530;1253;109885;-74
2024/02/11 15:24:03;;;;;;;5.90;3.80;;;;;;;11.51;69.99;96964.34;108237;1253;96925;-85
2024/02/11 15:26:33;;;;;;;7.60;4.10;;;;;;;11.45;69.89;96966.70;105644;1254;107673;-82
2024/02/11 15:34:02;;;;;;;;;;;;;;;;;;;;;
2024/02/11 15:41:12;;;;;;;8.40;4.10;;;;;;;11.22;69.98;96970.69;105587;1262;96688;-76
2024/02/11 15:43:46;;;;;;;8.50;3.30;;;;;;;11.21;69.80;96969.39;106179;1259;108795;-75
2024/02/11 15:46:21;;;;;;;7.50;4.70;;;;;;;11.19;69.76;96966.23;105139;1261;96686;-76
2024/02/11 15:49:13;;;;;;;9.10;4.20;;;;;;;11.15;69.71;96969.66;105688;1261;97415;-75
2024/02/11 15:51:48;;;;;;;6.10;3.70;;;;;;;11.11;69.72;96976.61;108084;1256;109835;-75
2024/02/11 15:54:16;;;;;;;8.20;4.40;;;;;;;11.11;69.77;96979.85;105373;1259;97145;-75
2024/02/11 15:56:48;;;;;;;7.60;4.10;;;;;;;11.10;69.67;96978.71;104956;1257;106673;-75
2024/02/11 15:59:43;;;;;;;8.90;4.20;;;;;;;11.08;69.78;96977.45;107087;1256;96591;-79
2024/02/11 16:02:11;;;;;;;9.10;4.80;;;;;;;11.08;69.84;96979.08;105629;1256;96687;-80
2024/02/11 16:04:42;;;;;;;7.00;4.50;;;;;;;11.07;69.79;96973.06;105609;1261;109035;-81
2024/02/11 16:07:12;;;;;;;12.40;5.40;;;;;;;11.05;69.69;96975.76;106956;1261;96631;-80
2024/02/11 16:09:46;;;;;;;21.60;10.10;;;;;;;11.03;69.77;96972.86;105720;1256;106122;-81
2024/02/11 16:12:18;;;;;;;13.60;6.40;;;;;;;11.03;69.72;96973.95;105837;1260;96626;-83
2024/02/11 16:14:46;;;;;;;14.40;5.70;;;;;;;11.01;69.78;96971.63;105433;1260;96572;-81
2024/02/11 16:17:14;;;;;;;13.40;6.20;;;;;;;11.01;69.76;96974.20;105733;1256;109683;-81
2024/02/11 16:19:41;;;;;;;11.10;5.50;;;;;;;11.00;69.75;96975.89;105380;1256;97017;-82
2024/02/11 16:22:10;;;;;;;10.50;5.50;;;;;;;10.98;69.77;96979.74;105773;1257;107629;-81
2024/02/11 16:24:37;;;;;;;11.50;6.70;;;;;;;10.98;69.78;96978.30;108415;1253;94510;-81
2024/02/11 16:27:05;;;;;;;13.20;5.90;;;;;;;10.96;69.81;96978.23;106451;1254;96502;-82
2024/02/11 16:29:33;;;;;;;13.30;7.60;;;;;;;10.95;69.75;96979.21;105646;1257;109603;-81
2024/02/11 16:32:01;;;;;;;13.00;6.30;;;;;;;10.93;69.73;96974.33;105305;1257;97832;-82
2024/02/11 16:34:32;;;;;;;12.50;6.70;;;;;;;10.91;69.75;96976.64;107281;1256;106805;-82
2024/02/11 16:37:00;;;;;;;13.80;6.30;;;;;;;10.90;69.81;96976.41;107671;1256;96580;-83
2024/02/11 16:39:30;;;;;;;11.00;6.10;;;;;;;10.90;69.73;96980.36;105773;1253;96581;-84
2024/02/11 16:41:58;;;;;;;10.60;5.50;;;;;;;10.89;69.79;96979.30;105481;1256;109840;-82
2024/02/11 16:44:27;;;;;;;10.50;5.80;;;;;;;10.90;69.76;96981.41;105988;1256;96584;-82
2024/02/11 16:46:55;;;;;;;9.70;4.80;;;;;;;10.89;69.81;96987.64;106220;1255;107638;-82
2024/02/11 16:49:26;;;;;;;9.10;5.30;;;;;;;10.87;69.73;96991.04;105653;1256;96513;-82
2024/02/11 16:51:54;;;;;;;9.10;5.90;;;;;;;10.85;69.74;96989.51;106106;1254;96609;-83
2024/02/11 16:54:22;;;;;;;14.40;6.50;;;;;;;10.83;69.91;96990.06;105932;1254;108515;-82
2024/02/11 16:56:50;;;;;;;14.10;7.40;;;;;;;10.81;69.72;96993.65;105667;1256;96639;-81
2024/02/11 16:59:18;;;;;;;15.60;8.30;;;;;;;10.78;69.76;96994.86;105511;1256;107671;-84
2024/02/11 17:01:46;;;;;;;18.80;10.30;;;;;;;10.75;69.86;96997.05;106164;1253;96593;-83
2024/02/11 17:04:15;;;;;;;18.10;9.80;;;;;;;10.72;69.88;96997.23;105518;1254;97560;-82
2024/02/11 17:06:44;;;;;;;15.90;8.20;;;;;;;10.70;69.84;96997.69;107078;1256;109665;-81
2024/02/11 17:09:14;;;;;;;16.60;8.20;;;;;;;10.69;69.85;97000.92;105640;1256;96508;-83
2024/02/11 17:11:44;;;;;;;18.40;10.40;;;;;;;10.68;69.90;96997.75;105793;1256;107207;-83
2024/02/11 17:14:14;;;;;;;22.70;10.10;;;;;;;10.64;69.81;96996.21;105714;1257;96676;-82
2024/02/11 17:16:43;;;;;;;17.90;9.20;;;;;;;10.60;69.88;97001.40;106189;1254;96603;-82
2024/02/11 17:19:13;;;;;;;15.90;8.30;;;;;;;10.57;69.84;97002.60;106597;1256;109956;-82
2024/02/11 17:21:41;;;;;;;21.70;11.20;;;;;;;10.54;69.92;97002.69;106133;1256;97860;-82
2024/02/11 17:24:09;;;;;;;28.30;14.00;;;;;;;10.52;70.06;97007.23;105793;1256;107572;-82
2024/02/11 17:26:37;;;;;;;20.80;10.10;;;;;;;10.50;70.03;97009.73;108311;1253;94777;-83
2024/02/11 17:29:05;;;;;;;17.20;8.60;;;;;;;10.47;69.98;97010.43;105565;1256;96615;-81
2024/02/11 17:31:43;;;;;;;19.80;9.70;;;;;;;10.45;70.03;97008.27;105714;1256;109877;-80
2024/02/11 17:34:13;;;;;;;16.40;8.80;;;;;;;10.41;70.04;97012.70;107325;1256;96606;-82
2024/02/11 17:36:43;;;;;;;11.90;5.90;;;;;;;10.39;70.05;97013.63;105417;1257;107585;-81
2024/02/11 17:39:14;;;;;;;8.40;5.30;;;;;;;10.39;70.13;97014.42;107615;1258;96604;-82
2024/02/11 17:41:45;;;;;;;10.70;4.90;;;;;;;10.38;70.14;97011.83;108562;1253;96524;-81
2024/02/11 17:44:14;;;;;;;12.70;5.60;;;;;;;10.39;70.20;97018.14;106046;1254;111474;-83
2024/02/11 17:46:42;;;;;;;7.70;4.20;;;;;;;10.38;70.14;97015.73;105915;1256;96609;-82
2024/02/11 17:49:14;;;;;;;9.40;4.70;;;;;;;10.38;70.20;97016.02;107462;1254;107705;-80
2024/02/11 17:51:43;;;;;;;8.40;4.30;;;;;;;10.38;70.24;97020.10;106823;1256;96643;-81
2024/02/11 17:54:13;;;;;;;7.10;4.20;;;;;;;10.37;70.22;97021.24;105887;1256;97801;-81
2024/02/11 17:56:42;;;;;;;9.20;4.10;;;;;;;10.37;70.22;97024.52;105638;1256;109951;-81
2024/02/11 17:59:11;;;;;;;6.50;3.70;;;;;;;10.36;70.34;97024.89;107572;1256;96647;-80
2024/02/11 18:01:42;;;;;;;7.30;4.00;;;;;;;10.37;70.31;97026.09;107663;1256;106897;-81
2024/02/11 18:04:10;;;;;;;5.20;3.10;;;;;;;10.34;70.29;97021.77;105431;1256;96606;-79
2024/02/11 18:06:44;;;;;;;9.70;3.40;;;;;;;10.32;70.30;97026.63;105286;1256;96564;-75
2024/02/11 18:09:13;;;;;;;5.30;3.30;;;;;;;10.31;70.38;97031.32;108491;1254;109929;-76
2024/02/11 18:11:41;;;;;;;6.90;3.50;;;;;;;10.30;70.46;97031.05;106370;1256;97070;-83
2024/02/11 18:14:09;;;;;;;5.40;2.90;;;;;;;10.29;70.42;97029.04;105586;1261;107471;-81
2024/02/11 18:16:38;;;;;;;6.90;3.40;;;;;;;10.28;70.52;97032.49;105801;1254;96684;-88
2024/02/11 18:19:06;;;;;;;7.30;3.10;;;;;;;10.27;70.45;97033.05;108330;1253;94758;-82
2024/02/11 18:21:36;;;;;;;5.80;3.30;;;;;;;10.27;70.53;97035.41;107642;1254;109425;-79
2024/02/11 18:24:05;;;;;;;8.80;3.50;;;;;;;10.26;70.50;97039.58;106844;1256;96544;-75
2024/02/11 18:26:33;;;;;;;8.10;3.70;;;;;;;10.25;70.56;97040.04;106188;1259;107276;-77
2024/02/11 18:29:02;;;;;;;5.10;3.10;;;;;;;10.25;70.62;97040.92;105656;1256;97723;-77
2024/02/11 18:31:30;;;;;;;6.30;3.50;;;;;;;10.25;70.62;97041.25;105975;1259;96633;-79
2024/02/11 18:34:00;;;;;;;6.10;3.40;;;;;;;10.25;70.67;97043.21;105942;1256;109408;-79
2024/02/11 18:36:28;;;;;;;8.10;3.50;;;;;;;10.25;70.75;97044.87;105688;1257;96540;-84
2024/02/11 18:38:57;;;;;;;5.90;3.50;;;;;;;10.25;70.76;97045.70;105691;1257;107544;-84
2024/02/11 18:41:25;;;;;;;6.30;3.50;;;;;;;10.25;70.80;97042.31;107428;1253;96590;-84
2024/02/11 18:43:53;;;;;;;6.80;3.40;;;;;;;10.25;70.91;97044.65;105661;1253;97417;-84
2024/02/11 18:46:21;;;;;;;9.00;2.90;;;;;;;10.25;70.80;97046.80;106456;1256;110010;-80
2024/02/11 18:48:51;;;;;;;6.20;3.40;;;;;;;10.24;70.87;97046.66;106164;1254;97255;-79
2024/02/11 18:51:19;;;;;;;6.20;3.50;;;;;;;10.26;70.96;97050.09;105464;1266;108197;-83
2024/02/11 18:53:56;;;;;;;6.60;3.40;;;;;;;10.26;70.95;97052.71;106843;1257;96530;-84
2024/02/11 18:57:24;;;;;;;6.30;3.20;;;;;;;10.23;70.98;97055.09;105969;1262;98078;-86
2024/02/11 19:01:12;;;;;;;;;;;;;;;;;;;;;
2024/02/11 19:04:19;;;;;;;5.90;3.50;;;;;;;10.24;71.15;97055.42;107599;1254;96590;-83
2024/02/11 19:07:51;;;;;;;7.40;3.00;;;;;;;10.24;71.21;97055.63;106357;1260;106927;-85
2024/02/11 19:15:23;;;;;;;5.40;3.20;;;;;;;10.27;71.23;97063.41;106200;1262;95281;-86
2024/02/11 19:18:10;;;;;;;4.90;2.90;;;;;;;10.29;71.20;97060.55;105249;1261;110054;-87
2024/02/11 19:20:45;;;;;;;4.80;3.20;;;;;;;10.28;71.31;97062.46;106208;1256;96622;-86
2024/02/11 19:23:13;;;;;;;5.60;2.80;;;;;;;10.25;71.42;97060.91;105658;1259;109515;-90
2024/02/11 19:25:44;;;;;;;9.40;3.30;;;;;;;10.27;71.50;97064.14;105541;1259;96594;-91
2024/02/11 19:28:13;;;;;;;5.60;2.60;;;;;;;10.27;71.52;97064.15;105516;1260;97868;-88
2024/02/11 19:30:47;;;;;;;3.80;2.60;;;;;;;10.27;71.53;97063.58;105667;1254;109913;-88
2024/02/11 23:40:52;;;;;;;4.80;3.00;;;;;;;9.96;74.69;97152.96;104514;1287;635091;-90
2024/02/11 23:43:25;;;;;;;7.90;2.90;;;;;;;9.93;74.61;97158.65;106083;1266;94950;-89
2024/02/11 23:46:22;;;;;;;5.40;3.00;;;;;;;9.92;74.61;97158.00;105047;1263;94335;-87
2024/02/11 23:48:50;;;;;;;4.50;3.00;;;;;;;9.90;74.64;97162.58;104960;1267;107898;-88
2024/02/11 23:51:24;;;;;;;4.40;2.90;;;;;;;9.87;74.68;97160.23;106648;1257;95659;-90
2024/02/11 23:53:58;;;;;;;5.90;3.30;;;;;;;9.88;74.78;97167.10;103886;1255;2337896;-89
2024/02/11 23:56:27;;;;;;;4.90;3.30;;;;;;;9.88;74.77;97170.28;107234;1260;94305;-89
2024/02/11 23:58:55;;;;;;;6.20;2.80;;;;;;;9.86;74.88;97172.77;105737;1255;94309;-90
